Time;durP1;ratioP1;P1;durP2;ratioP2;P2;SDS_P1;SDS_P2;PMS_P1;PMS_P2;Temp;Humidity;BMP_temperature;BMP_pressure;BME280_temperature;BME280_humidity;BME280_pressure;Samples;Min_cycle;Max_cycle;Signal;HPM_P1;HPM_P2
2023/06/16 00:00:34;;;;;;;8.10;6.40;;;15.40;99.90;;;;;;5012142;28;20491;-52
2023/06/16 00:03:01;;;;;;;12.57;7.03;;;15.40;99.90;;;;;;5008558;28;20514;-51
2023/06/16 00:05:28;;;;;;;10.10;6.90;;;15.30;99.90;;;;;;5008211;28;20490;-51
2023/06/16 00:07:58;;;;;;;7.10;6.43;;;15.30;99.90;;;;;;5009430;28;20554;-51
2023/06/16 00:10:26;;;;;;;7.53;6.83;;;15.30;99.90;;;;;;5010579;28;20466;-52
2023/06/16 00:12:52;;;;;;;8.97;7.10;;;15.30;99.90;;;;;;5010163;28;20483;-51
2023/06/16 00:15:21;;;;;;;8.23;6.13;;;15.30;99.90;;;;;;5006175;28;20570;-51
2023/06/16 00:17:49;;;;;;;9.63;6.37;;;15.30;99.90;;;;;;5008962;28;20502;-51
2023/06/16 00:20:19;;;;;;;18.23;7.10;;;15.20;99.90;;;;;;5006138;28;20472;-52
2023/06/16 00:22:47;;;;;;;10.00;6.40;;;15.10;99.90;;;;;;5008204;28;20495;-51
2023/06/16 00:25:15;;;;;;;6.77;6.03;;;15.00;99.90;;;;;;5010544;28;20882;-51
2023/06/16 00:27:43;;;;;;;8.10;6.43;;;14.90;99.90;;;;;;5010611;28;20488;-51
2023/06/16 00:30:11;;;;;;;7.90;6.10;;;14.90;99.90;;;;;;5006849;28;20488;-52
2023/06/16 00:32:38;;;;;;;11.70;6.70;;;14.90;99.90;;;;;;5010949;28;20587;-51
2023/06/16 00:35:05;;;;;;;9.17;6.20;;;14.90;99.90;;;;;;5015047;28;20514;-52
2023/06/16 00:37:31;;;;;;;6.97;5.90;;;14.90;99.90;;;;;;5014085;28;20491;-52
2023/06/16 00:39:58;;;;;;;11.47;6.70;;;14.90;99.90;;;;;;5015220;28;20885;-52
2023/06/16 00:42:25;;;;;;;17.80;6.67;;;14.90;99.90;;;;;;5013560;28;21039;-53
2023/06/16 00:44:52;;;;;;;10.30;6.33;;;14.90;99.90;;;;;;5014229;28;20463;-51
2023/06/16 00:47:19;;;;;;;10.20;6.60;;;14.90;99.90;;;;;;5012472;28;20495;-52
2023/06/16 00:49:46;;;;;;;7.00;6.40;;;14.90;99.90;;;;;;5013680;28;20489;-52
2023/06/16 00:52:15;;;;;;;8.00;6.50;;;14.80;99.90;;;;;;5013075;28;20522;-52
2023/06/16 00:54:42;;;;;;;8.13;6.57;;;14.90;99.90;;;;;;5009872;28;20483;-52
2023/06/16 00:57:09;;;;;;;9.70;7.23;;;14.80;99.90;;;;;;5011539;28;20900;-52
2023/06/16 00:59:36;;;;;;;8.83;6.90;;;14.80;99.90;;;;;;5010520;28;20979;-52
2023/06/16 01:02:05;;;;;;;9.43;7.20;;;14.90;99.90;;;;;;5012398;28;20491;-52
2023/06/16 01:04:32;;;;;;;7.50;6.27;;;14.90;99.90;;;;;;5010688;28;20464;-50
2023/06/16 01:07:05;;;;;;;6.13;5.60;;;14.80;99.90;;;;;;5010141;28;20510;-51
2023/06/16 01:09:40;;;;;;;7.60;6.37;;;14.80;99.90;;;;;;5009656;28;20467;-52
2023/06/16 01:12:12;;;;;;;6.93;5.60;;;14.80;99.90;;;;;;5012831;28;20459;-53
2023/06/16 01:14:47;;;;;;;6.73;6.13;;;14.80;99.90;;;;;;5011069;28;20572;-52
2023/06/16 01:17:16;;;;;;;14.17;6.83;;;14.70;99.90;;;;;;5011769;28;20502;-52
2023/06/16 01:19:47;;;;;;;9.03;6.80;;;14.80;99.90;;;;;;5010354;28;20476;-51
2023/06/16 01:22:28;;;;;;;6.60;5.60;;;14.80;99.90;;;;;;5006728;28;20542;-51
2023/06/16 01:25:00;;;;;;;8.90;6.20;;;14.80;99.90;;;;;;5006691;28;20547;-51
2023/06/16 01:27:29;;;;;;;7.77;6.40;;;14.70;99.90;;;;;;5010918;28;20466;-52
2023/06/16 01:29:57;;;;;;;7.23;6.47;;;14.70;99.90;;;;;;5006757;28;20573;-52
2023/06/16 01:32:26;;;;;;;8.27;6.47;;;14.70;99.90;;;;;;5011204;28;20511;-51
2023/06/16 01:34:53;;;;;;;6.33;5.77;;;14.70;99.90;;;;;;5009596;28;20610;-52
2023/06/16 01:37:21;;;;;;;6.30;5.80;;;14.70;99.90;;;;;;5005788;28;20488;-52
2023/06/16 01:39:49;;;;;;;7.30;6.60;;;14.70;99.90;;;;;;5006683;28;20503;-52
2023/06/16 01:42:18;;;;;;;7.83;5.60;;;14.70;99.90;;;;;;5003183;28;20491;-50
2023/06/16 01:44:46;;;;;;;7.43;6.73;;;14.70;99.90;;;;;;5009166;28;20491;-53
2023/06/16 01:47:13;;;;;;;7.00;6.40;;;14.70;99.90;;;;;;5012876;28;20491;-52
2023/06/16 01:49:41;;;;;;;7.93;6.43;;;14.60;99.90;;;;;;5009848;28;20510;-50
2023/06/16 01:52:08;;;;;;;9.27;6.73;;;14.60;99.90;;;;;;5012871;28;20487;-52
2023/06/16 01:54:34;;;;;;;8.70;6.93;;;14.70;99.90;;;;;;5008325;28;20491;-53
2023/06/16 01:57:03;;;;;;;7.80;7.03;;;14.70;99.90;;;;;;5008915;28;20487;-51
2023/06/16 01:59:31;;;;;;;8.40;7.50;;;14.60;99.90;;;;;;5008085;28;20463;-51
2023/06/16 02:02:05;;;;;;;9.07;6.60;;;14.70;99.90;;;;;;5013507;28;20958;-51
2023/06/16 02:04:33;;;;;;;9.73;7.50;;;14.60;99.90;;;;;;5011447;28;20496;-51
2023/06/16 02:07:04;;;;;;;10.73;7.67;;;14.60;99.90;;;;;;5012064;28;20503;-52
2023/06/16 02:09:32;;;;;;;8.80;8.00;;;14.60;99.90;;;;;;5012418;28;20479;-52
2023/06/16 02:11:59;;;;;;;9.23;7.60;;;14.60;99.90;;;;;;5011535;28;20534;-53
2023/06/16 02:14:27;;;;;;;8.43;7.60;;;14.60;99.90;;;;;;5012572;28;20522;-52
2023/06/16 02:16:56;;;;;;;11.10;7.87;;;14.70;99.90;;;;;;5012036;28;20464;-51
2023/06/16 02:19:23;;;;;;;8.87;7.43;;;14.60;99.90;;;;;;5002914;28;20547;-52
2023/06/16 02:21:50;;;;;;;9.23;7.60;;;14.60;99.90;;;;;;5013517;28;20862;-53
2023/06/16 02:24:16;;;;;;;8.40;7.40;;;14.60;99.90;;;;;;5009917;28;20492;-51
2023/06/16 02:26:43;;;;;;;9.40;8.40;;;14.60;99.90;;;;;;5001856;28;20965;-50
2023/06/16 02:29:09;;;;;;;9.10;8.27;;;14.60;99.90;;;;;;5012927;28;20479;-52
2023/06/16 02:31:36;;;;;;;8.73;7.83;;;14.60;99.90;;;;;;5011722;28;20460;-51
2023/06/16 02:34:04;;;;;;;9.73;6.90;;;14.60;99.90;;;;;;5012313;28;20518;-51
2023/06/16 02:36:30;;;;;;;8.67;7.77;;;14.60;99.90;;;;;;5012497;28;20519;-52
2023/06/16 02:38:57;;;;;;;8.73;8.03;;;14.60;99.90;;;;;;5009863;28;20470;-52
2023/06/16 02:41:24;;;;;;;12.80;8.70;;;14.60;99.90;;;;;;5009582;28;20479;-52
2023/06/16 02:43:50;;;;;;;8.67;7.80;;;14.50;99.90;;;;;;5010366;28;20521;-52
2023/06/16 02:46:17;;;;;;;9.57;8.60;;;14.60;99.90;;;;;;5011664;28;20599;-52
2023/06/16 02:48:44;;;;;;;9.87;8.53;;;14.60;99.90;;;;;;5013202;28;20479;-51
2023/06/16 02:51:11;;;;;;;9.57;8.70;;;14.50;99.90;;;;;;5011139;28;20486;-51
2023/06/16 02:53:39;;;;;;;13.80;7.93;;;14.50;99.90;;;;;;5009039;28;20598;-51
2023/06/16 02:56:06;;;;;;;12.40;8.53;;;14.50;99.90;;;;;;5010661;28;20579;-52
2023/06/16 02:58:33;;;;;;;9.00;8.27;;;14.50;99.90;;;;;;5010424;28;20475;-51
2023/06/16 03:01:00;;;;;;;9.00;8.07;;;14.50;99.90;;;;;;5007373;28;20491;-52
2023/06/16 03:03:30;;;;;;;10.03;8.97;;;14.50;99.90;;;;;;5006343;28;20515;-51
2023/06/16 03:05:57;;;;;;;9.53;8.10;;;14.50;99.90;;;;;;5007531;28;20516;-51
2023/06/16 03:08:25;;;;;;;9.27;8.20;;;14.50;99.90;;;;;;5006902;28;20471;-51
2023/06/16 03:10:52;;;;;;;10.10;9.10;;;14.50;99.90;;;;;;5010704;28;20515;-51
2023/06/16 03:13:19;;;;;;;9.97;9.07;;;14.60;99.90;;;;;;5014370;28;20482;-51
2023/06/16 03:15:45;;;;;;;8.77;8.10;;;14.50;99.90;;;;;;5010668;28;20487;-52
2023/06/16 03:18:12;;;;;;;8.53;7.57;;;14.50;99.90;;;;;;5008964;28;20488;-52
2023/06/16 03:20:40;;;;;;;11.10;9.40;;;14.50;99.90;;;;;;5008957;28;20546;-52
2023/06/16 03:23:06;;;;;;;9.70;8.00;;;14.50;99.90;;;;;;5008109;28;21019;-52
2023/06/16 03:25:35;;;;;;;9.97;8.87;;;14.50;99.90;;;;;;5012161;28;20476;-52
2023/06/16 03:28:01;;;;;;;13.30;7.77;;;14.50;99.90;;;;;;5009007;28;20502;-52
2023/06/16 03:30:28;;;;;;;8.77;7.80;;;14.50;99.90;;;;;;5010556;28;20518;-52
2023/06/16 03:32:54;;;;;;;14.13;8.03;;;14.50;99.90;;;;;;5011750;28;20507;-52
2023/06/16 03:35:21;;;;;;;8.93;8.13;;;14.50;99.90;;;;;;5011263;28;20494;-52
2023/06/16 03:37:47;;;;;;;8.60;7.87;;;14.50;99.90;;;;;;5010641;28;20499;-52
2023/06/16 03:40:14;;;;;;;10.13;7.77;;;14.50;99.90;;;;;;5010955;28;20484;-51
2023/06/16 03:42:42;;;;;;;8.77;7.93;;;14.50;99.90;;;;;;5011972;28;20522;-52
2023/06/16 03:45:09;;;;;;;9.47;8.57;;;14.50;99.90;;;;;;5011471;28;20874;-52
2023/06/16 03:47:35;;;;;;;10.07;8.27;;;14.50;99.90;;;;;;5004927;28;20908;-52
2023/06/16 03:50:03;;;;;;;9.03;8.10;;;14.50;99.90;;;;;;5009715;28;20499;-52
2023/06/16 03:52:30;;;;;;;8.97;7.97;;;14.50;99.90;;;;;;5005204;28;20476;-51
2023/06/16 03:54:57;;;;;;;8.77;7.67;;;14.50;99.90;;;;;;5011062;28;20507;-51
2023/06/16 03:57:23;;;;;;;8.80;8.00;;;14.50;99.90;;;;;;5010135;28;20471;-51
2023/06/16 03:59:51;;;;;;;8.53;7.83;;;14.60;99.90;;;;;;5011715;28;20484;-51
2023/06/16 04:02:18;;;;;;;10.23;8.10;;;14.60;99.90;;;;;;5010553;28;20496;-51
2023/06/16 04:04:46;;;;;;;14.40;7.93;;;14.60;99.90;;;;;;5011635;28;20459;-52
2023/06/16 04:07:12;;;;;;;8.87;7.97;;;14.60;99.90;;;;;;5009275;28;20463;-52
2023/06/16 04:09:39;;;;;;;13.47;7.73;;;14.60;99.90;;;;;;5010167;28;20587;-52
2023/06/16 04:12:06;;;;;;;10.87;8.50;;;14.60;99.90;;;;;;5011562;28;20488;-51
2023/06/16 04:14:33;;;;;;;11.30;7.40;;;14.50;99.90;;;;;;5011420;28;20475;-52
2023/06/16 04:17:01;;;;;;;8.80;8.00;;;14.50;99.90;;;;;;5009466;28;20483;-51
2023/06/16 04:19:28;;;;;;;11.07;7.73;;;14.60;99.90;;;;;;5006091;28;20464;-52
2023/06/16 04:21:55;;;;;;;10.87;7.77;;;14.50;99.90;;;;;;5001066;28;20857;-52
2023/06/16 04:24:21;;;;;;;8.00;7.20;;;14.60;99.90;;;;;;5005768;28;20471;-51
2023/06/16 04:26:48;;;;;;;7.80;7.10;;;14.60;99.90;;;;;;5007211;28;20559;-51
2023/06/16 04:29:15;;;;;;;12.90;6.63;;;14.60;99.90;;;;;;5009499;28;20955;-52
2023/06/16 04:31:42;;;;;;;11.23;7.43;;;14.60;99.90;;;;;;5011032;28;20976;-51
2023/06/16 04:34:10;;;;;;;11.00;7.47;;;14.60;99.90;;;;;;5005049;28;20486;-51
2023/06/16 04:36:44;;;;;;;7.83;7.00;;;14.60;99.90;;;;;;5007465;28;20491;-51
2023/06/16 04:39:11;;;;;;;9.37;7.37;;;14.60;99.90;;;;;;5005870;28;20463;-51
2023/06/16 04:41:38;;;;;;;9.07;7.20;;;14.70;99.90;;;;;;5006684;28;20468;-51
2023/06/16 04:44:06;;;;;;;9.80;7.33;;;14.60;99.90;;;;;;5008551;28;20570;-51
2023/06/16 04:46:33;;;;;;;8.50;7.70;;;14.70;99.90;;;;;;5008416;28;20466;-52
2023/06/16 04:48:59;;;;;;;9.97;7.30;;;14.70;99.90;;;;;;5004898;28;21004;-51
2023/06/16 04:51:28;;;;;;;8.03;7.23;;;14.70;99.90;;;;;;5004601;28;20488;-52
2023/06/16 04:53:54;;;;;;;8.83;7.60;;;14.70;99.90;;;;;;5008984;28;20515;-53
2023/06/16 04:56:21;;;;;;;8.20;7.40;;;14.60;99.90;;;;;;5002338;28;20488;-52
2023/06/16 04:58:48;;;;;;;7.93;7.13;;;14.70;99.90;;;;;;5008796;28;20617;-52
2023/06/16 05:01:14;;;;;;;7.30;6.60;;;14.70;99.90;;;;;;5011627;28;20459;-52
2023/06/16 05:03:41;;;;;;;7.10;6.43;;;14.70;99.90;;;;;;5010529;28;20614;-52
2023/06/16 05:06:07;;;;;;;7.97;7.37;;;14.70;99.90;;;;;;5009873;28;21004;-52
2023/06/16 05:08:35;;;;;;;6.97;6.37;;;14.70;99.90;;;;;;5008251;28;20460;-51
2023/06/16 05:11:02;;;;;;;7.60;6.90;;;14.70;99.90;;;;;;5009249;28;20511;-52
2023/06/16 05:13:30;;;;;;;9.63;7.30;;;14.70;99.90;;;;;;5011234;28;20462;-51
2023/06/16 05:15:56;;;;;;;7.33;6.50;;;14.70;99.90;;;;;;5012628;28;20911;-52
2023/06/16 05:18:23;;;;;;;7.40;6.37;;;14.70;99.90;;;;;;5007989;28;20551;-51
2023/06/16 05:20:49;;;;;;;7.00;6.50;;;14.60;99.90;;;;;;5013117;28;20463;-51
2023/06/16 05:23:16;;;;;;;9.90;6.07;;;14.70;99.90;;;;;;5011302;28;20527;-53
2023/06/16 05:25:45;;;;;;;7.00;6.40;;;14.60;99.90;;;;;;5004080;28;20495;-52
2023/06/16 05:28:12;;;;;;;7.57;6.87;;;14.60;99.90;;;;;;5007003;28;20529;-51
2023/06/16 05:30:38;;;;;;;11.77;6.00;;;14.60;99.90;;;;;;5010864;28;20495;-51
2023/06/16 05:33:05;;;;;;;6.80;6.30;;;14.70;99.90;;;;;;5009861;28;20512;-52
2023/06/16 05:35:31;;;;;;;7.10;6.43;;;14.60;99.90;;;;;;5013448;28;20984;-52
2023/06/16 05:37:58;;;;;;;10.67;7.07;;;14.60;99.90;;;;;;5012263;28;20494;-50
2023/06/16 05:40:25;;;;;;;9.63;7.27;;;14.70;99.90;;;;;;5011104;28;20503;-53
2023/06/16 05:42:53;;;;;;;8.47;7.60;;;14.60;99.90;;;;;;5016188;28;20922;-53
2023/06/16 05:45:19;;;;;;;7.63;6.93;;;14.70;99.90;;;;;;5012888;28;20483;-52
2023/06/16 05:47:46;;;;;;;8.20;7.40;;;14.60;99.90;;;;;;5014480;28;20455;-51
2023/06/16 05:50:13;;;;;;;10.83;7.70;;;14.70;99.90;;;;;;5012345;28;20472;-51
2023/06/16 05:52:39;;;;;;;7.50;6.80;;;14.70;99.90;;;;;;5009378;28;20484;-53
2023/06/16 05:55:07;;;;;;;8.73;7.93;;;14.70;99.90;;;;;;5012268;28;20540;-52
2023/06/16 05:57:33;;;;;;;11.57;7.80;;;14.70;99.90;;;;;;5014078;28;20578;-52
2023/06/16 06:00:01;;;;;;;9.23;6.40;;;14.70;99.90;;;;;;5017021;28;20545;-51
2023/06/16 06:02:28;;;;;;;7.57;6.87;;;14.70;99.90;;;;;;5013560;28;20553;-52
2023/06/16 06:04:55;;;;;;;7.27;6.40;;;14.70;99.90;;;;;;5004647;28;21051;-51
2023/06/16 06:07:22;;;;;;;7.17;6.50;;;14.80;99.90;;;;;;5005874;28;20538;-51
2023/06/16 06:09:48;;;;;;;8.30;7.47;;;14.80;99.90;;;;;;5011314;28;20468;-52
2023/06/16 06:12:15;;;;;;;8.40;6.70;;;14.70;99.90;;;;;;5011658;28;21004;-51
2023/06/16 06:14:41;;;;;;;9.27;7.07;;;14.70;99.90;;;;;;5002272;28;20499;-50
2023/06/16 06:17:10;;;;;;;7.83;6.87;;;14.80;99.90;;;;;;5006937;28;20619;-51
2023/06/16 06:19:37;;;;;;;7.33;6.83;;;14.70;99.90;;;;;;5007524;28;20460;-52
2023/06/16 06:22:04;;;;;;;10.60;7.53;;;14.70;99.90;;;;;;5002296;28;20555;-52
2023/06/16 06:24:31;;;;;;;7.70;7.10;;;14.70;99.90;;;;;;5009759;28;20463;-52
2023/06/16 06:26:58;;;;;;;7.40;6.70;;;14.70;99.90;;;;;;5008041;28;20487;-51
2023/06/16 06:29:25;;;;;;;7.57;6.87;;;14.70;99.90;;;;;;5002215;28;21052;-51
2023/06/16 06:31:51;;;;;;;7.07;6.43;;;14.60;99.90;;;;;;5014391;28;20533;-52
2023/06/16 06:34:19;;;;;;;7.07;6.47;;;14.70;99.90;;;;;;5015334;28;20511;-52
2023/06/16 06:36:47;;;;;;;8.13;6.53;;;14.70;99.90;;;;;;5006474;28;20491;-52
2023/06/16 06:39:14;;;;;;;12.00;6.50;;;14.70;99.90;;;;;;5010021;28;20456;-51
2023/06/16 06:41:40;;;;;;;9.37;7.43;;;14.70;99.90;;;;;;4997616;28;21046;-52
2023/06/16 06:44:07;;;;;;;7.67;6.97;;;14.70;99.90;;;;;;5001458;28;21009;-51
2023/06/16 06:46:35;;;;;;;9.00;7.40;;;14.80;99.90;;;;;;5010344;28;20470;-51
2023/06/16 06:49:01;;;;;;;8.40;7.70;;;14.80;99.90;;;;;;5018546;28;20471;-50
2023/06/16 06:51:29;;;;;;;10.90;6.83;;;14.80;99.90;;;;;;5014045;28;20495;-51
2023/06/16 06:53:56;;;;;;;8.70;7.80;;;14.80;99.90;;;;;;5006906;28;20909;-51
2023/06/16 06:56:22;;;;;;;9.30;7.30;;;14.80;99.90;;;;;;5008306;28;21060;-52
2023/06/16 06:58:49;;;;;;;8.90;7.80;;;14.80;99.90;;;;;;5004614;28;20558;-50
2023/06/16 07:01:16;;;;;;;9.37;8.33;;;14.90;99.90;;;;;;5005924;28;20487;-51
2023/06/16 07:03:42;;;;;;;8.17;7.47;;;14.90;99.90;;;;;;5006571;28;20503;-51
2023/06/16 07:06:09;;;;;;;9.00;8.20;;;15.00;99.90;;;;;;5011524;28;20495;-50
2023/06/16 07:08:37;;;;;;;11.83;7.70;;;15.00;99.90;;;;;;5001664;28;20467;-51
2023/06/16 07:11:04;;;;;;;8.77;7.83;;;15.10;99.90;;;;;;5007147;28;20459;-52
2023/06/16 07:13:31;;;;;;;9.67;8.77;;;15.10;99.90;;;;;;5002039;28;20507;-51
2023/06/16 07:15:58;;;;;;;8.87;8.10;;;15.20;99.90;;;;;;5010725;28;20450;-53
2023/06/16 07:18:25;;;;;;;10.17;8.40;;;15.20;99.90;;;;;;5010525;28;20573;-52
2023/06/16 07:20:51;;;;;;;9.10;8.30;;;15.20;99.90;;;;;;5004530;28;20483;-51
2023/06/16 07:23:18;;;;;;;12.27;8.57;;;15.40;99.90;;;;;;5006865;28;20909;-51
2023/06/16 07:25:46;;;;;;;10.10;8.07;;;15.60;99.90;;;;;;5010268;28;20502;-52
2023/06/16 07:28:12;;;;;;;10.90;8.17;;;15.70;99.90;;;;;;5005049;28;20489;-52
2023/06/16 07:30:39;;;;;;;11.40;7.70;;;15.80;99.90;;;;;;5002357;28;20534;-53
2023/06/16 07:33:07;;;;;;;8.43;7.80;;;15.80;99.90;;;;;;5005113;28;20935;-52
2023/06/16 07:35:34;;;;;;;9.80;8.90;;;15.90;99.90;;;;;;5008220;28;20459;-52
2023/06/16 07:38:00;;;;;;;10.70;8.00;;;16.10;99.90;;;;;;5007852;28;20570;-51
2023/06/16 07:40:27;;;;;;;9.90;8.90;;;16.10;99.90;;;;;;5009690;28;20503;-53
2023/06/16 07:42:56;;;;;;;9.17;8.10;;;16.30;99.90;;;;;;5016277;28;21514;-52
2023/06/16 07:45:22;;;;;;;8.20;7.50;;;16.30;99.90;;;;;;5008002;28;20477;-50
2023/06/16 07:47:49;;;;;;;7.67;7.00;;;16.30;99.90;;;;;;5005742;28;20455;-55
2023/06/16 07:50:16;;;;;;;7.37;6.50;;;16.20;99.90;;;;;;5003996;28;20526;-56
2023/06/16 07:52:42;;;;;;;9.07;7.27;;;16.20;99.90;;;;;;5003081;28;20528;-55
2023/06/16 07:55:10;;;;;;;6.23;5.60;;;16.20;99.90;;;;;;5006253;28;20492;-54
2023/06/16 07:57:38;;;;;;;6.50;4.90;;;16.10;99.90;;;;;;5004131;28;20476;-55
2023/06/16 08:00:11;;;;;;;4.50;4.20;;;15.90;99.90;;;;;;5002167;28;20490;-55
2023/06/16 08:02:38;;;;;;;8.10;4.50;;;15.80;99.90;;;;;;5002666;28;20484;-54
2023/06/16 08:05:06;;;;;;;9.13;4.00;;;15.80;99.90;;;;;;5006312;28;20496;-54
2023/06/16 08:07:32;;;;;;;5.50;4.40;;;15.60;99.90;;;;;;5001136;28;20495;-54
2023/06/16 08:09:59;;;;;;;4.70;4.27;;;15.60;99.90;;;;;;5000759;28;20982;-56
2023/06/16 08:12:25;;;;;;;5.60;3.83;;;15.70;99.90;;;;;;5007739;28;20518;-55
2023/06/16 08:14:52;;;;;;;4.43;4.03;;;15.80;99.90;;;;;;5002463;28;20521;-54
2023/06/16 08:17:20;;;;;;;5.90;4.50;;;15.80;99.90;;;;;;4998059;28;20520;-54
2023/06/16 08:19:46;;;;;;;4.60;3.80;;;15.80;99.90;;;;;;5006571;28;20502;-55
2023/06/16 08:22:13;;;;;;;4.13;3.80;;;15.80;99.90;;;;;;5011202;28;20972;-55
2023/06/16 08:24:39;;;;;;;3.97;3.53;;;15.80;99.90;;;;;;5006752;28;20507;-53
2023/06/16 08:27:07;;;;;;;4.40;4.00;;;15.80;99.90;;;;;;5015619;28;20460;-51
2023/06/16 08:29:34;;;;;;;3.53;3.23;;;15.80;99.90;;;;;;5004869;28;20849;-55
2023/06/16 08:32:01;;;;;;;4.23;3.93;;;15.80;99.90;;;;;;5010244;28;20961;-55
2023/06/16 08:34:29;;;;;;;6.33;4.37;;;15.70;99.90;;;;;;5008841;28;20464;-55
2023/06/16 08:36:56;;;;;;;6.00;3.80;;;15.80;99.90;;;;;;5007029;28;20484;-54
2023/06/16 08:39:23;;;;;;;7.77;4.00;;;15.90;99.90;;;;;;5005529;28;20557;-54
2023/06/16 08:41:50;;;;;;;4.27;3.40;;;16.10;99.90;;;;;;5008324;28;20573;-56
2023/06/16 08:44:18;;;;;;;4.60;4.20;;;16.30;99.90;;;;;;5007287;28;20522;-55
2023/06/16 08:46:45;;;;;;;4.40;4.00;;;16.30;99.90;;;;;;5005801;28;20946;-54
2023/06/16 08:49:15;;;;;;;3.87;3.57;;;16.30;99.90;;;;;;5003679;28;20468;-54
2023/06/16 08:51:47;;;;;;;3.63;3.43;;;16.50;99.90;;;;;;5004822;28;20847;-54
2023/06/16 08:54:15;;;;;;;12.60;3.47;;;16.60;99.90;;;;;;5011146;28;20502;-54
2023/06/16 08:56:44;;;;;;;6.10;3.10;;;16.50;99.90;;;;;;5010310;28;20496;-55
2023/06/16 08:59:12;;;;;;;3.03;2.93;;;16.50;99.90;;;;;;4999254;28;20465;-55
2023/06/16 09:01:39;;;;;;;4.87;3.50;;;16.60;99.90;;;;;;5009538;28;20543;-55
2023/06/16 09:04:08;;;;;;;6.03;3.10;;;16.50;99.90;;;;;;5013318;28;20522;-54
2023/06/16 09:06:35;;;;;;;4.13;3.73;;;16.60;99.90;;;;;;5005502;28;20465;-55
2023/06/16 09:09:04;;;;;;;3.70;3.43;;;16.60;99.90;;;;;;5008993;28;20499;-55
2023/06/16 09:11:31;;;;;;;4.43;4.00;;;16.80;99.90;;;;;;5009954;28;20457;-55
2023/06/16 09:13:57;;;;;;;3.30;3.10;;;16.70;99.90;;;;;;5018479;28;20467;-52
2023/06/16 09:16:24;;;;;;;3.87;3.57;;;16.70;99.90;;;;;;5007023;28;20502;-52
2023/06/16 09:18:51;;;;;;;4.30;3.90;;;16.80;99.90;;;;;;5013691;28;20492;-51
2023/06/16 09:21:20;;;;;;;7.90;3.50;;;16.90;99.90;;;;;;5010696;28;20464;-51
2023/06/16 09:23:55;;;;;;;3.57;3.37;;;16.90;99.90;;;;;;5006726;28;20953;-52
2023/06/16 09:26:29;;;;;;;5.40;3.80;;;16.90;99.90;;;;;;5008436;28;20630;-53
2023/06/16 09:28:56;;;;;;;4.03;3.67;;;17.00;99.90;;;;;;5011073;28;20455;-51
2023/06/16 09:31:26;;;;;;;4.63;4.03;;;17.10;99.90;;;;;;5010397;28;20906;-53
2023/06/16 09:33:52;;;;;;;7.13;3.80;;;17.20;99.90;;;;;;5005823;28;20518;-51
2023/06/16 09:36:27;;;;;;;6.50;3.83;;;17.20;99.90;;;;;;5003720;28;20471;-52
2023/06/16 09:38:53;;;;;;;4.37;3.90;;;17.10;22.70;;;;;;5007622;28;20579;-53
2023/06/16 09:41:21;;;;;;;12.87;4.43;;;17.40;20.10;;;;;;5013898;28;20448;-52
2023/06/16 09:43:49;;;;;;;4.43;4.00;;;17.60;49.60;;;;;;5006661;28;20518;-52
2023/06/16 09:46:16;;;;;;;4.40;4.00;;;17.60;57.70;;;;;;5002058;28;20550;-52
2023/06/16 09:48:47;;;;;;;5.13;4.67;;;17.60;51.80;;;;;;5013034;28;20498;-52
2023/06/16 09:51:17;;;;;;;9.73;5.27;;;17.70;65.60;;;;;;5001999;28;20941;-52
2023/06/16 09:53:45;;;;;;;5.20;4.80;;;17.40;91.30;;;;;;5009178;28;20480;-51
2023/06/16 09:56:13;;;;;;;5.50;5.00;;;17.60;88.00;;;;;;5012256;28;20499;-51
2023/06/16 09:58:40;;;;;;;6.27;5.70;;;17.70;82.80;;;;;;5011753;28;20520;-52
2023/06/16 10:01:09;;;;;;;7.73;5.00;;;17.80;99.90;;;;;;5007253;28;20983;-52
2023/06/16 10:03:39;;;;;;;6.67;5.30;;;17.80;99.90;;;;;;5007500;28;20492;-52
2023/06/16 10:06:11;;;;;;;5.30;4.80;;;17.90;93.40;;;;;;5005479;28;20880;-51
2023/06/16 10:08:39;;;;;;;7.57;5.33;;;18.00;97.30;;;;;;5007992;28;20902;-53
2023/06/16 10:11:07;;;;;;;5.97;5.10;;;17.80;99.90;;;;;;5010244;28;20585;-52
2023/06/16 10:13:34;;;;;;;5.33;4.93;;;17.80;96.00;;;;;;5010648;28;20956;-52
2023/06/16 10:16:04;;;;;;;7.93;4.70;;;17.80;97.30;;;;;;5011547;28;20488;-52
2023/06/16 10:18:42;;;;;;;8.20;5.13;;;17.90;80.30;;;;;;5001833;28;20484;-56
2023/06/16 10:21:10;;;;;;;9.50;4.50;;;17.90;99.90;;;;;;5009887;28;20467;-55
2023/06/16 10:23:36;;;;;;;29.37;6.33;;;17.80;99.90;;;;;;5006503;28;21050;-55
2023/06/16 10:26:04;;;;;;;5.17;4.57;;;17.80;99.90;;;;;;5008634;28;20495;-54
2023/06/16 10:28:32;;;;;;;7.40;4.73;;;17.60;99.90;;;;;;5008427;28;20829;-54
2023/06/16 10:31:09;;;;;;;292.93;17.57;;;17.40;99.90;;;;;;5014514;28;20527;-55
2023/06/16 10:36:31;;;;;;;5.07;4.57;;;17.40;99.90;;;;;;5065195;28;20617;-51
2023/06/16 10:39:01;;;;;;;4.20;3.90;;;17.30;99.90;;;;;;5072740;28;20489;-53
2023/06/16 10:41:29;;;;;;;10.87;5.13;;;17.40;99.90;;;;;;5069972;28;20462;-52
2023/06/16 10:43:56;;;;;;;6.63;4.70;;;17.50;99.90;;;;;;5068720;28;20489;-51
2023/06/16 10:46:28;;;;;;;12.03;3.90;;;17.70;99.90;;;;;;5072568;28;20515;-52
2023/06/16 10:49:15;;;;;;;4.63;4.23;;;17.70;99.90;;;;;;5063978;28;20500;-51
2023/06/16 10:51:45;;;;;;;5.53;4.07;;;17.70;99.90;;;;;;5064023;28;20511;-51
2023/06/16 10:54:14;;;;;;;8.23;4.60;;;17.70;99.90;;;;;;5065652;28;20484;-51
2023/06/16 10:57:06;;;;;;;4.83;3.83;;;17.70;99.90;;;;;;5072095;28;20979;-51
2023/06/16 10:59:55;;;;;;;10.53;4.40;;;17.80;99.90;;;;;;5056122;28;20489;-52
2023/06/16 11:02:24;;;;;;;5.20;4.40;;;18.00;99.90;;;;;;5064437;28;20580;-51
2023/06/16 11:05:09;;;;;;;5.47;5.00;;;18.20;99.90;;;;;;5064686;28;20463;-51
2023/06/16 11:07:39;;;;;;;6.23;5.37;;;18.30;99.90;;;;;;5065448;28;20999;-53
2023/06/16 11:10:08;;;;;;;8.30;4.33;;;18.40;99.90;;;;;;5059431;28;20462;-53
2023/06/16 11:12:34;;;;;;;5.20;4.70;;;18.30;99.90;;;;;;5063771;28;20900;-51
2023/06/16 11:15:02;;;;;;;4.33;4.03;;;18.20;99.90;;;;;;5056260;28;20926;-52
2023/06/16 11:17:29;;;;;;;5.80;4.50;;;18.20;99.90;;;;;;5065844;28;20998;-52
2023/06/16 11:19:57;;;;;;;5.10;4.60;;;18.10;99.90;;;;;;5066716;28;20457;-51
2023/06/16 11:22:33;;;;;;;12.73;4.57;;;18.20;99.90;;;;;;5066773;28;20482;-52
2023/06/16 11:25:03;;;;;;;5.17;4.67;;;18.30;99.90;;;;;;5066551;28;20493;-52
2023/06/16 11:27:30;;;;;;;7.00;4.40;;;18.50;99.90;;;;;;5070014;28;20461;-51
2023/06/16 11:29:57;;;;;;;11.60;4.70;;;18.60;99.90;;;;;;5064521;28;20457;-52
2023/06/16 11:32:24;;;;;;;4.43;4.13;;;18.30;99.90;;;;;;5061366;28;20485;-51
2023/06/16 11:34:53;;;;;;;17.97;4.50;;;18.20;99.90;;;;;;5062379;28;20520;-52
2023/06/16 11:37:19;;;;;;;15.90;4.93;;;18.00;99.90;;;;;;5063918;28;20476;-52
2023/06/16 11:39:46;;;;;;;7.93;4.80;;;17.60;99.90;;;;;;5074076;28;20502;-55
2023/06/16 11:42:15;;;;;;;7.80;5.10;;;17.20;74.00;;;;;;5064733;28;20813;-54
2023/06/16 11:44:41;;;;;;;6.07;4.87;;;17.10;51.60;;;;;;5062392;28;20468;-56
2023/06/16 11:47:09;;;;;;;6.33;5.17;;;16.90;22.20;;;;;;5061479;28;20489;-55
2023/06/16 11:49:37;;;;;;;11.67;5.00;;;16.80;99.90;;;;;;5048192;28;20580;-55
2023/06/16 11:52:05;;;;;;;5.70;5.10;;;16.80;99.90;;;;;;5051066;28;20494;-54
2023/06/16 11:54:32;;;;;;;8.30;5.00;;;16.80;99.90;;;;;;5045893;28;20469;-54
2023/06/16 11:56:59;;;;;;;5.83;4.93;;;16.90;99.90;;;;;;5056753;28;20463;-54
2023/06/16 11:59:28;;;;;;;7.10;5.00;;;17.00;99.90;;;;;;5052840;28;20457;-54
2023/06/16 12:01:57;;;;;;;7.50;4.67;;;17.00;99.90;;;;;;5053893;28;20477;-53
2023/06/16 12:04:25;;;;;;;10.30;4.97;;;17.00;99.90;;;;;;5049932;28;20505;-55
2023/06/16 12:06:53;;;;;;;5.77;5.17;;;17.00;48.60;;;;;;5050816;28;20513;-53
2023/06/16 12:09:20;;;;;;;8.83;4.50;;;17.00;31.70;;;;;;5045205;28;20491;-56
2023/06/16 12:11:48;;;;;;;7.37;5.20;;;17.00;28.10;;;;;;5050684;28;20609;-56
2023/06/16 12:14:19;;;;;;;12.03;5.30;;;16.90;99.90;;;;;;5057286;28;20473;-56
2023/06/16 12:16:49;;;;;;;7.93;5.10;;;17.00;62.70;;;;;;5052786;28;20565;-56
2023/06/16 12:19:18;;;;;;;6.40;4.90;;;17.10;36.80;;;;;;5045882;28;20466;-53
2023/06/16 12:21:49;;;;;;;8.53;5.03;;;17.20;56.70;;;;;;5052970;28;20543;-56
2023/06/16 12:24:19;;;;;;;5.33;4.73;;;17.30;42.80;;;;;;5050833;28;20956;-56
2023/06/16 12:26:46;;;;;;;7.10;5.20;;;17.20;87.20;;;;;;5046810;28;20991;-55
2023/06/16 12:29:15;;;;;;;8.70;4.40;;;17.20;74.10;;;;;;5044142;28;20458;-54
2023/06/16 12:31:54;;;;;;;4.97;4.57;;;17.30;62.90;;;;;;5046779;28;20462;-54
2023/06/16 12:34:23;;;;;;;9.10;5.30;;;17.30;75.20;;;;;;5048688;28;20576;-55
2023/06/16 12:36:49;;;;;;;10.00;5.00;;;17.30;60.30;;;;;;5048113;28;20505;-55
2023/06/16 12:39:17;;;;;;;4.83;4.43;;;17.30;66.50;;;;;;5048937;28;20600;-56
2023/06/16 12:41:56;;;;;;;7.10;5.07;;;17.40;99.90;;;;;;5055622;28;20834;-56
2023/06/16 12:44:23;;;;;;;4.93;4.53;;;17.60;99.90;;;;;;5053655;28;20555;-55
2023/06/16 12:46:49;;;;;;;9.83;4.37;;;17.70;99.90;;;;;;5050794;28;21209;-54
2023/06/16 12:49:19;;;;;;;12.43;4.27;;;17.90;99.90;;;;;;5050361;28;20465;-55
2023/06/16 12:51:45;;;;;;;7.03;4.27;;;18.00;99.90;;;;;;5051593;28;20474;-54